createdAt,value
2018-07-24T00:00:31.470Z,1012.28
2018-07-24T00:01:31.512Z,1012.25
2018-07-24T00:02:31.459Z,1012.23
2018-07-24T00:03:31.410Z,1012.24
2018-07-24T00:04:31.400Z,1012.27
2018-07-24T00:05:31.386Z,1012.24
2018-07-24T00:06:31.374Z,1012.20
2018-07-24T00:07:31.392Z,1012.26
2018-07-24T00:08:31.354Z,1012.20
2018-07-24T00:09:31.345Z,1012.22
2018-07-24T00:10:31.343Z,1012.20
2018-07-24T00:11:31.331Z,1012.25
2018-07-24T00:12:31.341Z,1012.22
2018-07-24T00:13:31.296Z,1012.19
2018-07-24T00:14:31.291Z,1012.21
2018-07-24T00:15:31.276Z,1012.17
2018-07-24T00:16:31.267Z,1012.16
2018-07-24T00:17:31.343Z,1012.15
2018-07-24T00:18:31.240Z,1012.14
2018-07-24T00:19:31.235Z,1012.17
2018-07-24T00:20:31.273Z,1012.12
2018-07-24T00:21:31.210Z,1012.18
2018-07-24T00:22:31.199Z,1012.17
2018-07-24T00:23:31.188Z,1012.14
2018-07-24T00:24:31.181Z,1012.16
2018-07-24T00:25:31.194Z,1012.12
2018-07-24T00:26:31.184Z,1012.13
2018-07-24T00:27:31.147Z,1012.15
2018-07-24T00:28:31.178Z,1012.15
2018-07-24T00:29:31.120Z,1012.17
2018-07-24T00:30:31.107Z,1012.14
2018-07-24T00:31:31.127Z,1012.13
2018-07-24T00:32:31.117Z,1012.16
2018-07-24T00:33:31.170Z,1012.16
2018-07-24T00:34:31.074Z,1012.13
2018-07-24T00:35:31.052Z,1012.11
2018-07-24T00:36:31.048Z,1012.08
2018-07-24T00:37:31.055Z,1012.10
2018-07-24T00:38:31.019Z,1012.04
2018-07-24T00:39:31.008Z,1012.06
2018-07-24T00:40:31.005Z,1012.08
2018-07-24T00:41:31.114Z,1012.06
2018-07-24T00:42:30.975Z,1012.06
2018-07-24T00:43:30.965Z,1012.07
2018-07-24T00:44:30.952Z,1012.00
2018-07-24T00:45:30.944Z,1012.02
2018-07-24T00:46:30.955Z,1012.08
2018-07-24T00:47:30.964Z,1012.04
2018-07-24T00:48:30.909Z,1012.04
2018-07-24T00:49:30.895Z,1012.05
2018-07-24T00:50:30.878Z,1012.06
2018-07-24T00:51:30.881Z,1012.03
2018-07-24T00:52:30.905Z,1012.06
2018-07-24T00:53:30.852Z,1012.06
2018-07-24T00:54:30.841Z,1012.03
2018-07-24T00:55:30.825Z,1012.01
2018-07-24T00:56:30.813Z,1012.01
2018-07-24T00:57:30.869Z,1012.01
2018-07-24T00:58:30.793Z,1012.03
2018-07-24T00:59:30.786Z,1011.99
2018-07-24T01:00:30.774Z,1012.04
2018-07-24T01:01:30.755Z,1012.02
2018-07-24T01:02:30.781Z,1011.96
2018-07-24T01:03:30.765Z,1011.97
2018-07-24T01:04:30.721Z,1012.01
2018-07-24T01:05:30.715Z,1012.00
2018-07-24T01:06:30.701Z,1012.03
2018-07-24T01:07:30.689Z,1011.93
2018-07-24T01:08:30.733Z,1011.94
2018-07-24T01:09:30.667Z,1011.96
2018-07-24T01:10:30.699Z,1012.01
2018-07-24T01:11:30.651Z,1011.96
2018-07-24T01:12:30.634Z,1011.97
2018-07-24T01:13:30.621Z,1011.92
2018-07-24T01:14:30.656Z,1011.92
2018-07-24T01:15:30.604Z,1011.92
2018-07-24T01:16:30.605Z,1011.89
2018-07-24T01:17:30.581Z,1011.94
2018-07-24T01:18:30.610Z,1011.95
2018-07-24T01:19:30.557Z,1011.90
2018-07-24T01:20:30.540Z,1011.94
2018-07-24T01:21:30.539Z,1011.90
2018-07-24T01:22:30.563Z,1011.92
2018-07-24T01:23:30.509Z,1011.89
2018-07-24T01:24:30.499Z,1011.94
2018-07-24T01:25:30.486Z,1011.88
2018-07-24T01:26:30.479Z,1011.86
2018-07-24T01:27:30.523Z,1011.87
2018-07-24T01:28:30.459Z,1011.89
2018-07-24T01:29:30.510Z,1011.92
2018-07-24T01:30:30.434Z,1011.90
2018-07-24T01:31:30.422Z,1011.85
2018-07-24T01:32:30.428Z,1011.89
2018-07-24T01:33:30.397Z,1011.92
2018-07-24T01:34:30.381Z,1011.89
2018-07-24T01:35:30.373Z,1011.89
2018-07-24T01:36:30.402Z,1011.91
2018-07-24T01:37:30.406Z,1011.84
2018-07-24T01:38:30.338Z,1011.89
2018-07-24T01:39:30.335Z,1011.78
2018-07-24T01:40:30.347Z,1011.80
2018-07-24T01:41:30.303Z,1011.76
2018-07-24T01:42:30.296Z,1011.81
2018-07-24T01:43:30.280Z,1011.77
2018-07-24T01:44:30.304Z,1011.75
2018-07-24T01:45:30.261Z,1011.81
2018-07-24T01:46:30.249Z,1011.80
2018-07-24T01:47:30.236Z,1011.82
2018-07-24T01:48:30.273Z,1011.82
2018-07-24T01:49:30.217Z,1011.80
2018-07-24T01:50:30.208Z,1011.84
2018-07-24T01:51:30.192Z,1011.83
2018-07-24T01:52:30.185Z,1011.84
2018-07-24T01:53:30.761Z,1011.77
2018-07-24T01:54:30.163Z,1011.78
2018-07-24T01:55:30.163Z,1011.81
2018-07-24T01:56:30.186Z,1011.77
2018-07-24T01:57:30.156Z,1011.82
2018-07-24T01:58:30.112Z,1011.82
2018-07-24T01:59:30.128Z,1011.76
2018-07-24T02:00:30.091Z,1011.75
2018-07-24T02:01:30.089Z,1011.78
2018-07-24T02:02:30.071Z,1011.77
2018-07-24T02:03:30.067Z,1011.78
2018-07-24T02:04:30.086Z,1011.77
2018-07-24T02:05:30.050Z,1011.72
2018-07-24T02:06:30.029Z,1011.72
2018-07-24T02:07:30.017Z,1011.72
2018-07-24T02:08:30.793Z,1011.71
2018-07-24T02:09:30.126Z,1011.74
2018-07-24T02:10:29.983Z,1011.71
2018-07-24T02:11:29.973Z,1011.72
2018-07-24T02:12:29.965Z,1011.68
2018-07-24T02:13:29.953Z,1011.71
2018-07-24T02:14:29.964Z,1011.74
2018-07-24T02:15:29.928Z,1011.69
2018-07-24T02:16:29.921Z,1011.75
2018-07-24T02:17:29.908Z,1011.70
2018-07-24T02:18:29.895Z,1011.74
2018-07-24T02:19:29.924Z,1011.75
2018-07-24T02:20:29.879Z,1011.71
2018-07-24T02:21:29.895Z,1011.71
2018-07-24T02:22:29.889Z,1011.71
2018-07-24T02:23:29.841Z,1011.76
2018-07-24T02:24:29.831Z,1011.72
2018-07-24T02:25:29.822Z,1011.73
2018-07-24T02:26:29.809Z,1011.74
2018-07-24T02:27:29.846Z,1011.70
2018-07-24T02:28:29.787Z,1011.76
2018-07-24T02:29:29.777Z,1011.80
2018-07-24T02:30:29.768Z,1011.78
2018-07-24T02:31:29.758Z,1011.75
2018-07-24T02:32:29.774Z,1011.83
2018-07-24T02:33:29.784Z,1011.84
2018-07-24T02:34:29.757Z,1011.85
2018-07-24T02:35:29.711Z,1011.80
2018-07-24T02:36:29.724Z,1011.75
2018-07-24T02:37:29.716Z,1011.76
2018-07-24T02:38:29.705Z,1011.73
2018-07-24T02:39:29.663Z,1011.72
2018-07-24T02:40:29.697Z,1011.73
2018-07-24T02:41:29.641Z,1011.69
2018-07-24T02:42:29.632Z,1011.76
2018-07-24T02:43:29.623Z,1011.70
2018-07-24T02:44:29.610Z,1011.69
2018-07-24T02:45:29.634Z,1011.74
2018-07-24T02:46:29.608Z,1011.75
2018-07-24T02:47:29.578Z,1011.76
2018-07-24T02:48:29.579Z,1011.75
2018-07-24T02:49:29.606Z,1011.75
2018-07-24T02:50:29.541Z,1011.70
2018-07-24T02:51:29.535Z,1011.71
2018-07-24T02:52:29.544Z,1011.69
2018-07-24T02:53:29.509Z,1011.78
2018-07-24T02:54:29.528Z,1011.72
2018-07-24T02:55:29.496Z,1011.70
2018-07-24T02:56:29.479Z,1011.74
2018-07-24T02:57:29.498Z,1011.68
2018-07-24T02:58:29.483Z,1011.69
2018-07-24T02:59:29.471Z,1011.73
2018-07-24T03:00:29.431Z,1011.72
2018-07-24T03:01:29.421Z,1011.75
2018-07-24T03:02:29.447Z,1011.81
2018-07-24T03:03:29.427Z,1011.77
2018-07-24T03:04:29.391Z,1011.80
2018-07-24T03:05:29.379Z,1011.77
2018-07-24T03:06:29.368Z,1011.77
2018-07-24T03:07:29.352Z,1011.77
2018-07-24T03:08:29.375Z,1011.77
2018-07-24T03:09:29.338Z,1011.76
2018-07-24T03:10:29.354Z,1011.78
2018-07-24T03:11:29.309Z,1011.79
2018-07-24T03:12:29.300Z,1011.75
2018-07-24T03:13:29.348Z,1011.79
2018-07-24T03:14:29.314Z,1011.75
2018-07-24T03:15:29.303Z,1011.77
2018-07-24T03:16:29.257Z,1011.78
2018-07-24T03:17:29.278Z,1011.78
2018-07-24T03:18:29.240Z,1011.82
2018-07-24T03:19:29.252Z,1011.83
2018-07-24T03:20:29.212Z,1011.80
2018-07-24T03:21:29.207Z,1011.79
2018-07-24T03:22:29.215Z,1011.80
2018-07-24T03:23:29.175Z,1011.79
2018-07-24T03:24:29.179Z,1011.77
2018-07-24T03:25:29.151Z,1011.79
2018-07-24T03:26:29.165Z,1011.79
2018-07-24T03:27:29.177Z,1011.76
2018-07-24T03:28:36.178Z,1011.80
2018-07-24T03:29:29.106Z,1011.78
2018-07-24T03:30:29.095Z,1011.81
2018-07-24T03:31:29.115Z,1011.81
2018-07-24T03:32:29.118Z,1011.81
2018-07-24T03:33:29.092Z,1011.81
2018-07-24T03:34:29.048Z,1011.83
2018-07-24T03:35:29.067Z,1011.82
2018-07-24T03:36:29.025Z,1011.83
2018-07-24T03:37:29.017Z,1011.82
2018-07-24T03:38:29.032Z,1011.87
2018-07-24T03:39:29.005Z,1011.85
2018-07-24T03:40:29.015Z,1011.82
2018-07-24T03:41:28.975Z,1011.81
2018-07-24T03:42:28.965Z,1011.84
2018-07-24T03:43:28.999Z,1011.86
2018-07-24T03:44:28.944Z,1011.83
2018-07-24T03:45:28.928Z,1011.81
2018-07-24T03:46:28.918Z,1011.84
2018-07-24T03:47:28.906Z,1011.90
2018-07-24T03:48:29.010Z,1011.83
2018-07-24T03:49:28.886Z,1011.80
2018-07-24T03:50:28.874Z,1011.85
2018-07-24T03:51:28.867Z,1011.86
2018-07-24T03:52:28.848Z,1011.87
2018-07-24T03:53:28.870Z,1011.86
2018-07-24T03:54:28.827Z,1011.89
2018-07-24T03:55:28.814Z,1011.87
2018-07-24T03:56:28.814Z,1011.92
2018-07-24T03:57:28.790Z,1011.88
2018-07-24T03:58:28.807Z,1011.86
2018-07-24T03:59:28.771Z,1011.88
2018-07-24T04:00:28.789Z,1011.88
2018-07-24T04:01:28.755Z,1011.87
2018-07-24T04:02:28.833Z,1011.89
2018-07-24T04:03:28.735Z,1011.88
2018-07-24T04:04:28.740Z,1011.89
2018-07-24T04:05:28.710Z,1011.93
2018-07-24T04:06:28.694Z,1011.88
2018-07-24T04:07:28.682Z,1011.86
2018-07-24T04:08:28.674Z,1011.83
2018-07-24T04:09:28.679Z,1011.87
2018-07-24T04:10:28.680Z,1011.86
2018-07-24T04:11:28.638Z,1011.90
2018-07-24T04:12:28.701Z,1011.89
2018-07-24T04:13:28.617Z,1011.88
2018-07-24T04:14:28.604Z,1011.88
2018-07-24T04:15:28.623Z,1011.85
2018-07-24T04:16:28.583Z,1011.86
2018-07-24T04:17:28.605Z,1011.84
2018-07-24T04:18:28.557Z,1011.87
2018-07-24T04:19:28.547Z,1011.86
2018-07-24T04:20:28.538Z,1011.88
2018-07-24T04:21:28.521Z,1011.87
2018-07-24T04:22:28.547Z,1011.85
2018-07-24T04:23:28.508Z,1011.82
2018-07-24T04:24:28.493Z,1011.79
2018-07-24T04:25:28.486Z,1011.84
2018-07-24T04:26:28.467Z,1011.89
2018-07-24T04:27:28.496Z,1011.84
2018-07-24T04:28:28.532Z,1011.83
2018-07-24T04:29:28.435Z,1011.82
2018-07-24T04:30:28.430Z,1011.84
2018-07-24T04:31:28.411Z,1011.82
2018-07-24T04:32:28.437Z,1011.83
2018-07-24T04:33:28.387Z,1011.85
2018-07-24T04:34:28.381Z,1011.89
2018-07-24T04:35:28.400Z,1011.79
2018-07-24T04:36:28.358Z,1011.83
2018-07-24T04:37:28.353Z,1011.81
2018-07-24T04:38:28.345Z,1011.84
2018-07-24T04:39:28.355Z,1011.81
2018-07-24T04:40:28.314Z,1011.82
2018-07-24T04:41:28.300Z,1011.81
2018-07-24T04:42:28.328Z,1011.76
2018-07-24T04:43:28.282Z,1011.77
2018-07-24T04:44:28.268Z,1011.80
2018-07-24T04:45:28.260Z,1011.78
2018-07-24T04:46:28.247Z,1011.79
2018-07-24T04:47:28.265Z,1011.83
2018-07-24T04:48:28.250Z,1011.79
2018-07-24T04:49:28.251Z,1011.72
2018-07-24T04:50:28.247Z,1011.75
2018-07-24T04:51:28.199Z,1011.74
2018-07-24T04:52:28.190Z,1011.70
2018-07-24T04:53:28.185Z,1011.80
2018-07-24T04:54:28.153Z,1011.80
2018-07-24T04:55:28.181Z,1011.77
2018-07-24T04:56:28.132Z,1011.70
2018-07-24T04:57:28.126Z,1011.76
2018-07-24T04:58:28.113Z,1011.76
2018-07-24T04:59:28.129Z,1011.72
2018-07-24T05:00:28.097Z,1011.74
2018-07-24T05:01:28.084Z,1011.75
2018-07-24T05:02:28.101Z,1011.81
2018-07-24T05:03:28.092Z,1011.77
2018-07-24T05:04:28.051Z,1011.78
2018-07-24T05:05:28.031Z,1011.81
2018-07-24T05:06:28.034Z,1011.79
2018-07-24T05:07:28.047Z,1011.74
2018-07-24T05:08:28.853Z,1011.75
2018-07-24T05:09:28.044Z,1011.74
2018-07-24T05:10:28.009Z,1011.76
2018-07-24T05:11:27.969Z,1011.77
2018-07-24T05:12:27.990Z,1011.74
2018-07-24T05:13:27.995Z,1011.73
2018-07-24T05:14:27.932Z,1011.72
2018-07-24T05:15:27.925Z,1011.74
2018-07-24T05:16:27.912Z,1011.74
2018-07-24T05:17:27.928Z,1011.73
2018-07-24T05:18:27.915Z,1011.74
2018-07-24T05:19:27.880Z,1011.73
2018-07-24T05:20:27.864Z,1011.77
2018-07-24T05:21:27.900Z,1011.68
2018-07-24T05:22:27.847Z,1011.74
2018-07-24T05:23:27.877Z,1011.70
2018-07-24T05:24:27.832Z,1011.77
2018-07-24T05:25:27.808Z,1011.72
2018-07-24T05:26:27.801Z,1011.74
2018-07-24T05:27:27.790Z,1011.79
2018-07-24T05:28:27.820Z,1011.80
2018-07-24T05:29:27.811Z,1011.80
2018-07-24T05:30:27.754Z,1011.77
2018-07-24T05:31:27.747Z,1011.81
2018-07-24T05:32:27.733Z,1011.77
2018-07-24T05:33:27.723Z,1011.74
2018-07-24T05:34:27.736Z,1011.86
2018-07-24T05:35:27.704Z,1011.76
2018-07-24T05:36:27.689Z,1011.75
2018-07-24T05:37:27.724Z,1011.80
2018-07-24T05:38:27.700Z,1011.78
2018-07-24T05:39:27.661Z,1011.77
2018-07-24T05:40:27.647Z,1011.80
2018-07-24T05:41:27.636Z,1011.79
2018-07-24T05:42:27.646Z,1011.79
2018-07-24T05:43:27.617Z,1011.82
2018-07-24T05:44:27.601Z,1011.80
2018-07-24T05:45:27.625Z,1011.78
2018-07-24T05:46:27.577Z,1011.78
2018-07-24T05:47:27.607Z,1011.80
2018-07-24T05:48:27.627Z,1011.83
2018-07-24T05:49:27.552Z,1011.82
2018-07-24T05:50:27.538Z,1011.86
2018-07-24T05:51:27.523Z,1011.84
2018-07-24T05:52:27.540Z,1011.79
2018-07-24T05:53:27.499Z,1011.83
2018-07-24T05:54:27.606Z,1011.82
2018-07-24T05:55:27.483Z,1011.83
2018-07-24T05:56:27.468Z,1011.85
2018-07-24T05:57:27.462Z,1011.82
2018-07-24T05:58:27.448Z,1011.80
2018-07-24T05:59:27.464Z,1011.80
2018-07-24T06:00:27.421Z,1011.79
2018-07-24T06:01:27.418Z,1011.79
2018-07-24T06:02:27.435Z,1011.73
2018-07-24T06:03:27.389Z,1011.78
2018-07-24T06:04:27.410Z,1011.76
2018-07-24T06:05:27.367Z,1011.73
2018-07-24T06:06:27.383Z,1011.72
2018-07-24T06:07:27.490Z,1011.69
2018-07-24T06:08:27.364Z,1011.69
2018-07-24T06:09:27.325Z,1011.71
2018-07-24T06:10:27.308Z,1011.74
2018-07-24T06:11:27.297Z,1011.72
2018-07-24T06:12:27.287Z,1011.72
2018-07-24T06:13:27.307Z,1011.73
2018-07-24T06:14:27.282Z,1011.76
2018-07-24T06:15:27.255Z,1011.75
2018-07-24T06:16:27.243Z,1011.76
2018-07-24T06:17:27.339Z,1011.81
2018-07-24T06:18:27.251Z,1011.80
2018-07-24T06:19:27.242Z,1011.86
2018-07-24T06:20:27.202Z,1011.79
2018-07-24T06:21:27.196Z,1011.83
2018-07-24T06:22:27.180Z,1011.83
2018-07-24T06:23:27.231Z,1011.78
2018-07-24T06:24:27.154Z,1011.78
2018-07-24T06:25:27.148Z,1011.80
2018-07-24T06:26:27.137Z,1011.78
2018-07-24T06:27:27.123Z,1011.80
2018-07-24T06:28:27.218Z,1011.79
2018-07-24T06:29:27.104Z,1011.83
2018-07-24T06:30:27.090Z,1011.77
2018-07-24T06:31:27.083Z,1011.80
2018-07-24T06:32:27.072Z,1011.80
2018-07-24T06:33:27.090Z,1011.83
2018-07-24T06:34:27.049Z,1011.79
2018-07-24T06:35:27.059Z,1011.83
2018-07-24T06:36:27.023Z,1011.83
2018-07-24T06:37:27.009Z,1011.80
2018-07-24T06:38:26.999Z,1011.76
2018-07-24T06:39:27.020Z,1011.76
2018-07-24T06:40:26.990Z,1011.78
2018-07-24T06:41:26.979Z,1011.76
2018-07-24T06:42:26.988Z,1011.79
2018-07-24T06:43:26.945Z,1011.83
2018-07-24T06:44:26.986Z,1011.83
2018-07-24T06:45:26.926Z,1011.80
2018-07-24T06:46:26.916Z,1011.78
2018-07-24T06:47:26.928Z,1011.84
2018-07-24T06:48:26.893Z,1011.79
2018-07-24T06:49:26.877Z,1011.79
2018-07-24T06:50:26.895Z,1011.81
2018-07-24T06:51:26.925Z,1011.83
2018-07-24T06:52:26.850Z,1011.84
2018-07-24T06:53:26.831Z,1011.84
2018-07-24T06:54:26.823Z,1011.89
2018-07-24T06:55:26.841Z,1011.84
2018-07-24T06:56:26.842Z,1011.85
2018-07-24T06:57:26.789Z,1011.82
2018-07-24T06:58:26.812Z,1011.76
2018-07-24T06:59:26.771Z,1011.80
2018-07-24T07:00:26.826Z,1011.76
2018-07-24T07:01:26.743Z,1011.74
2018-07-24T07:02:26.733Z,1011.74
2018-07-24T07:03:26.828Z,1011.75
2018-07-24T07:04:26.722Z,1011.77
2018-07-24T07:05:26.721Z,1011.75
2018-07-24T07:06:26.691Z,1011.70
2018-07-24T07:07:26.714Z,1011.72
2018-07-24T07:08:26.667Z,1011.68
2018-07-24T07:09:26.660Z,1011.72
2018-07-24T07:10:26.648Z,1011.67
2018-07-24T07:11:26.635Z,1011.69
2018-07-24T07:12:26.668Z,1011.68
2018-07-24T07:13:26.681Z,1011.68
2018-07-24T07:14:26.604Z,1011.65
2018-07-24T07:15:26.591Z,1011.69
2018-07-24T07:16:26.583Z,1011.66
2018-07-24T07:17:26.601Z,1011.67
2018-07-24T07:18:26.561Z,1011.70
2018-07-24T07:19:26.545Z,1011.63
2018-07-24T07:20:26.571Z,1011.61
2018-07-24T07:21:26.559Z,1011.68
2018-07-24T07:22:26.512Z,1011.68
2018-07-24T07:23:26.544Z,1011.69
2018-07-24T07:24:26.588Z,1011.66
2018-07-24T07:25:26.488Z,1011.71
2018-07-24T07:26:26.467Z,1011.66
2018-07-24T07:27:26.458Z,1011.67
2018-07-24T07:28:26.450Z,1011.68
2018-07-24T07:29:26.473Z,1011.69
2018-07-24T07:30:26.424Z,1011.65
2018-07-24T07:31:26.416Z,1011.65
2018-07-24T07:32:26.414Z,1011.63
2018-07-24T07:33:26.391Z,1011.71
2018-07-24T07:34:26.414Z,1011.65
2018-07-24T07:35:26.368Z,1011.66
2018-07-24T07:36:26.357Z,1011.66
2018-07-24T07:37:26.354Z,1011.62
2018-07-24T07:38:26.333Z,1011.67
2018-07-24T07:39:26.355Z,1011.64
2018-07-24T07:40:26.311Z,1011.63
2018-07-24T07:41:26.330Z,1011.64
2018-07-24T07:42:26.320Z,1011.63
2018-07-24T07:43:26.376Z,1011.65
2018-07-24T07:44:26.278Z,1011.67
2018-07-24T07:45:26.353Z,1011.64
2018-07-24T07:46:26.246Z,1011.61
2018-07-24T07:47:26.275Z,1011.59
2018-07-24T07:48:26.233Z,1011.66
2018-07-24T07:49:26.215Z,1011.66
2018-07-24T07:50:26.227Z,1011.62
2018-07-24T07:51:26.212Z,1011.64
2018-07-24T07:52:26.236Z,1011.61
2018-07-24T07:53:26.173Z,1011.63
2018-07-24T07:54:26.159Z,1011.54
2018-07-24T07:55:26.190Z,1011.57
2018-07-24T07:56:26.138Z,1011.56
2018-07-24T07:57:26.134Z,1011.50
2018-07-24T07:58:26.118Z,1011.55
2018-07-24T07:59:26.111Z,1011.51
2018-07-24T08:00:26.122Z,1011.56
2018-07-24T08:01:26.080Z,1011.52
2018-07-24T08:02:26.129Z,1011.53
2018-07-24T08:03:26.094Z,1011.51
2018-07-24T08:04:26.117Z,1011.50
2018-07-24T08:05:26.038Z,1011.54
2018-07-24T08:06:26.059Z,1011.54
2018-07-24T08:07:26.108Z,1011.54
2018-07-24T08:08:26.005Z,1011.59
2018-07-24T08:09:25.999Z,1011.57
2018-07-24T08:10:25.994Z,1011.54
2018-07-24T08:11:26.012Z,1011.56
2018-07-24T08:12:26.041Z,1011.58
2018-07-24T08:13:25.951Z,1011.56
2018-07-24T08:14:25.942Z,1011.56
2018-07-24T08:15:25.934Z,1011.58
2018-07-24T08:16:25.950Z,1011.54
2018-07-24T08:17:25.906Z,1011.50
2018-07-24T08:18:25.898Z,1011.48
2018-07-24T08:19:25.889Z,1011.54
2018-07-24T08:20:25.883Z,1011.53
2018-07-24T08:21:25.936Z,1011.51
2018-07-24T08:22:25.949Z,1011.48
2018-07-24T08:23:25.840Z,1011.53
2018-07-24T08:24:25.828Z,1011.50
2018-07-24T08:25:25.854Z,1011.43
2018-07-24T08:26:25.833Z,1011.44
2018-07-24T08:27:25.799Z,1011.48
2018-07-24T08:28:25.792Z,1011.49
2018-07-24T08:29:25.805Z,1011.46
2018-07-24T08:30:25.795Z,1011.45
2018-07-24T08:31:25.754Z,1011.49
2018-07-24T08:32:25.741Z,1011.46
2018-07-24T08:33:25.793Z,1011.47
2018-07-24T08:34:25.722Z,1011.45
2018-07-24T08:35:25.713Z,1011.48
2018-07-24T08:36:25.742Z,1011.42
2018-07-24T08:37:25.684Z,1011.43
2018-07-24T08:38:25.703Z,1011.47
2018-07-24T08:39:25.667Z,1011.40
2018-07-24T08:40:25.656Z,1011.44
2018-07-24T08:41:25.693Z,1011.41
2018-07-24T08:42:25.659Z,1011.36
2018-07-24T08:43:25.623Z,1011.37
2018-07-24T08:44:25.613Z,1011.41
2018-07-24T08:45:25.614Z,1011.36
2018-07-24T08:46:25.629Z,1011.37
2018-07-24T08:47:25.641Z,1011.35
2018-07-24T08:48:25.568Z,1011.34
2018-07-24T08:49:25.559Z,1011.34
2018-07-24T08:50:25.544Z,1011.35
2018-07-24T08:51:25.548Z,1011.38
2018-07-24T08:52:25.642Z,1011.27
2018-07-24T08:53:25.839Z,1011.30
2018-07-24T08:54:25.636Z,1011.32
2018-07-24T08:55:25.672Z,1011.28
2018-07-24T08:56:25.482Z,1011.35
2018-07-24T08:57:25.505Z,1011.27
2018-07-24T08:58:25.458Z,1011.34
2018-07-24T08:59:25.462Z,1011.29
2018-07-24T09:00:25.441Z,1011.29
2018-07-24T09:01:25.428Z,1011.26
2018-07-24T09:02:25.441Z,1011.29
2018-07-24T09:03:25.494Z,1011.26
2018-07-24T09:04:25.424Z,1011.26
2018-07-24T09:05:25.381Z,1011.26
2018-07-24T09:06:25.406Z,1011.28
2018-07-24T09:07:25.384Z,1011.27
2018-07-24T09:08:25.355Z,1011.25
2018-07-24T09:09:25.332Z,1011.28
2018-07-24T09:10:25.325Z,1011.28
2018-07-24T09:11:25.369Z,1011.26
2018-07-24T09:12:25.307Z,1011.27
2018-07-24T09:13:25.295Z,1011.28
2018-07-24T09:14:25.288Z,1011.23
2018-07-24T09:15:25.332Z,1011.29
2018-07-24T09:16:25.267Z,1011.23
2018-07-24T09:17:25.285Z,1011.23
2018-07-24T09:18:25.240Z,1011.23
2018-07-24T09:19:25.227Z,1011.24
2018-07-24T09:20:25.215Z,1011.29
2018-07-24T09:21:25.213Z,1011.28
2018-07-24T09:22:25.246Z,1011.29
2018-07-24T09:23:25.187Z,1011.31
2018-07-24T09:24:25.189Z,1011.30
2018-07-24T09:25:25.162Z,1011.31
2018-07-24T09:26:25.157Z,1011.33
2018-07-24T09:27:25.175Z,1011.33
2018-07-24T09:28:25.129Z,1011.32
2018-07-24T09:29:32.177Z,1011.33
2018-07-24T09:30:25.108Z,1011.31
2018-07-24T09:31:25.095Z,1011.24
2018-07-24T09:32:25.117Z,1011.31
2018-07-24T09:33:25.070Z,1011.32
2018-07-24T09:34:25.061Z,1011.32
2018-07-24T09:35:25.057Z,1011.26
2018-07-24T09:36:25.078Z,1011.29
2018-07-24T09:37:25.027Z,1011.31
2018-07-24T09:38:25.019Z,1011.28
2018-07-24T09:39:25.010Z,1011.31
2018-07-24T09:40:25.033Z,1011.29
2018-07-24T09:41:25.013Z,1011.32
2018-07-24T09:42:24.973Z,1011.23
2018-07-24T09:43:25.060Z,1011.25
2018-07-24T09:44:24.949Z,1011.23
2018-07-24T09:45:24.936Z,1011.20
2018-07-24T09:46:24.937Z,1011.18
2018-07-24T09:47:24.919Z,1011.17
2018-07-24T09:48:24.941Z,1011.24
2018-07-24T09:49:24.900Z,1011.24
2018-07-24T09:50:24.948Z,1011.19
2018-07-24T09:51:24.890Z,1011.20
2018-07-24T09:52:24.864Z,1011.21
2018-07-24T09:53:24.891Z,1011.18
2018-07-24T09:54:24.858Z,1011.18
2018-07-24T09:55:24.833Z,1011.17
2018-07-24T09:56:24.836Z,1011.17
2018-07-24T09:57:24.820Z,1011.21
2018-07-24T09:58:24.834Z,1011.20
2018-07-24T09:59:25.535Z,1011.18
2018-07-24T10:00:24.782Z,1011.13
2018-07-24T10:01:24.766Z,1011.11
2018-07-24T10:02:24.773Z,1011.07
2018-07-24T10:03:24.777Z,1011.08
2018-07-24T10:04:24.735Z,1011.13
2018-07-24T10:05:24.798Z,1011.09
2018-07-24T10:06:24.714Z,1011.11
2018-07-24T10:07:24.737Z,1011.10
2018-07-24T10:08:24.694Z,1011.08
2018-07-24T10:09:24.682Z,1011.10
2018-07-24T10:10:24.681Z,1011.11
2018-07-24T10:11:24.664Z,1011.16
2018-07-24T10:12:24.683Z,1011.09
2018-07-24T10:13:24.850Z,1011.08
2018-07-24T10:14:24.629Z,1011.06
2018-07-24T10:15:24.626Z,1011.07
2018-07-24T10:16:24.674Z,1011.05
2018-07-24T10:17:24.628Z,1011.02
2018-07-24T10:18:24.589Z,1011.02
2018-07-24T10:19:24.578Z,1011.00
2018-07-24T10:20:24.563Z,1010.96
2018-07-24T10:21:24.578Z,1010.94
2018-07-24T10:22:24.608Z,1010.94
2018-07-24T10:23:24.537Z,1010.94
2018-07-24T10:24:24.560Z,1010.96
2018-07-24T10:25:24.552Z,1010.96
2018-07-24T10:26:24.527Z,1010.87
2018-07-24T10:27:24.490Z,1010.79
2018-07-24T10:28:24.474Z,1010.77
2018-07-24T10:29:24.467Z,1010.75
2018-07-24T10:30:24.480Z,1010.74
2018-07-24T10:31:24.474Z,1010.76
2018-07-24T10:32:24.430Z,1010.78
2018-07-24T10:33:24.432Z,1010.80
2018-07-24T10:34:24.409Z,1010.74
2018-07-24T10:35:24.431Z,1010.73
2018-07-24T10:36:24.417Z,1010.68
2018-07-24T10:37:24.378Z,1010.70
2018-07-24T10:38:24.367Z,1010.71
2018-07-24T10:39:24.358Z,1010.73
2018-07-24T10:40:24.378Z,1010.69
2018-07-24T10:41:24.341Z,1010.66
2018-07-24T10:42:24.370Z,1010.68
2018-07-24T10:43:24.310Z,1010.66
2018-07-24T10:44:24.312Z,1010.72
2018-07-24T10:45:24.297Z,1010.65
2018-07-24T10:46:24.280Z,1010.65
2018-07-24T10:47:24.310Z,1010.66
2018-07-24T10:48:24.254Z,1010.61
2018-07-24T10:49:24.379Z,1010.62
2018-07-24T10:50:24.242Z,1010.62
2018-07-24T10:51:24.261Z,1010.66
2018-07-24T10:52:24.220Z,1010.59
2018-07-24T10:53:24.223Z,1010.59
2018-07-24T10:54:24.226Z,1010.56
2018-07-24T10:55:24.177Z,1010.51
2018-07-24T10:56:24.169Z,1010.54
2018-07-24T10:57:24.158Z,1010.58
2018-07-24T10:58:24.973Z,1010.59
2018-07-24T10:59:24.168Z,1010.55
2018-07-24T11:00:24.124Z,1010.50
2018-07-24T11:01:24.121Z,1010.54
2018-07-24T11:02:24.106Z,1010.53
2018-07-24T11:03:24.102Z,1010.50
2018-07-24T11:04:24.116Z,1010.50
2018-07-24T11:05:24.162Z,1010.49
2018-07-24T11:06:24.062Z,1010.50
2018-07-24T11:07:24.047Z,1010.48
2018-07-24T11:08:24.091Z,1010.47
2018-07-24T11:09:24.060Z,1010.47
2018-07-24T11:10:24.021Z,1010.39
2018-07-24T11:11:24.035Z,1010.41
2018-07-24T11:12:24.007Z,1010.40
2018-07-24T11:13:23.995Z,1010.41
2018-07-24T11:14:24.005Z,1010.46
2018-07-24T11:15:23.965Z,1010.46
2018-07-24T11:16:24.000Z,1010.47
2018-07-24T11:17:23.954Z,1010.41
2018-07-24T11:18:23.929Z,1010.48
2018-07-24T11:19:23.950Z,1010.43
2018-07-24T11:20:23.912Z,1010.45
2018-07-24T11:21:23.899Z,1010.46
2018-07-24T11:22:24.010Z,1010.46
2018-07-24T11:23:23.872Z,1010.47
2018-07-24T11:24:23.919Z,1010.38
2018-07-24T11:25:23.852Z,1010.44
2018-07-24T11:26:23.842Z,1010.38
2018-07-24T11:27:23.899Z,1010.38
2018-07-24T11:28:23.876Z,1010.38
2018-07-24T11:29:23.810Z,1010.37
2018-07-24T11:30:23.829Z,1010.39
2018-07-24T11:31:23.789Z,1010.34
2018-07-24T11:32:23.815Z,1010.32
2018-07-24T11:33:23.843Z,1010.35
2018-07-24T11:34:23.757Z,1010.31
2018-07-24T11:35:23.806Z,1010.31
2018-07-24T11:36:23.833Z,1010.27
2018-07-24T11:37:23.721Z,1010.27
2018-07-24T11:38:23.716Z,1010.25
2018-07-24T11:39:23.740Z,1010.32
2018-07-24T11:40:23.721Z,1010.26
2018-07-24T11:41:23.683Z,1010.26
2018-07-24T11:42:23.667Z,1010.28
2018-07-24T11:43:23.694Z,1010.30
2018-07-24T11:44:23.678Z,1010.25
2018-07-24T11:45:23.667Z,1010.24
2018-07-24T11:46:23.631Z,1010.23
2018-07-24T11:47:23.624Z,1010.22
2018-07-24T11:48:23.614Z,1010.23
2018-07-24T11:49:23.595Z,1010.21
2018-07-24T11:50:23.627Z,1010.26
2018-07-24T11:51:23.636Z,1010.24
2018-07-24T11:52:23.571Z,1010.23
2018-07-24T11:53:23.602Z,1010.24
2018-07-24T11:54:23.543Z,1010.25
2018-07-24T11:55:23.530Z,1010.25
2018-07-24T11:56:23.559Z,1010.21
2018-07-24T11:57:23.521Z,1010.22
2018-07-24T11:58:23.502Z,1010.19
2018-07-24T11:59:23.500Z,1010.19
2018-07-24T12:00:23.508Z,1010.14
2018-07-24T12:01:23.507Z,1010.21
2018-07-24T12:02:23.488Z,1010.16
2018-07-24T12:03:23.473Z,1010.16
2018-07-24T12:04:23.439Z,1010.18
2018-07-24T12:05:23.427Z,1010.16